createdAt,value
2023-03-17T00:01:57.161Z,10.40
2023-03-17T00:04:27.581Z,10.40
2023-03-17T00:06:58.002Z,10.40
2023-03-17T00:09:26.484Z,10.30
2023-03-17T00:11:54.772Z,10.30
2023-03-17T00:14:23.157Z,10.30
2023-03-17T00:16:53.751Z,10.30
2023-03-17T00:19:28.057Z,10.30
2023-03-17T00:21:59.031Z,10.30
2023-03-17T00:24:27.488Z,10.20
2023-03-17T00:26:55.805Z,10.30
2023-03-17T00:29:24.339Z,10.30
2023-03-17T00:31:52.878Z,10.30
2023-03-17T00:34:21.506Z,10.20
2023-03-17T00:36:51.793Z,10.20
2023-03-17T00:39:21.489Z,10.20
2023-03-17T00:41:50.004Z,10.10
2023-03-17T00:44:18.595Z,10.10
2023-03-17T00:46:47.122Z,10.10
2023-03-17T00:49:20.986Z,10.10
2023-03-17T00:51:50.233Z,10.10
2023-03-17T00:54:21.061Z,10.00
2023-03-17T00:56:50.987Z,10.00
2023-03-17T00:59:27.469Z,10.00
2023-03-17T01:01:56.328Z,9.90
2023-03-17T01:04:25.617Z,9.90
2023-03-17T01:06:54.224Z,9.90
2023-03-17T01:09:27.543Z,9.80
2023-03-17T01:11:56.498Z,9.80
2023-03-17T01:14:25.964Z,9.80
2023-03-17T01:16:55.339Z,9.70
2023-03-17T01:19:23.813Z,9.70
2023-03-17T01:21:52.379Z,9.70
2023-03-17T01:24:21.127Z,9.70
2023-03-17T01:26:50.973Z,9.70
2023-03-17T01:29:19.359Z,9.60
2023-03-17T01:31:47.801Z,9.60
2023-03-17T01:34:16.600Z,9.60
2023-03-17T01:36:45.004Z,9.50
2023-03-17T01:39:13.379Z,9.50
2023-03-17T01:41:41.955Z,9.50
2023-03-17T01:44:18.508Z,9.40
2023-03-17T01:46:47.522Z,9.40
2023-03-17T01:49:29.423Z,9.40
2023-03-17T01:52:06.129Z,9.30
2023-03-17T01:54:40.293Z,9.30
2023-03-17T01:57:14.040Z,9.30
2023-03-17T01:59:47.752Z,9.20
2023-03-17T02:02:20.352Z,9.20
2023-03-17T02:04:49.410Z,9.10
2023-03-17T02:07:17.774Z,9.10
2023-03-17T02:09:46.948Z,9.00
2023-03-17T02:12:15.719Z,9.00
2023-03-17T02:14:45.460Z,8.90
2023-03-17T02:17:14.800Z,8.90
2023-03-17T02:19:43.201Z,8.80
2023-03-17T02:22:13.544Z,8.80
2023-03-17T02:24:46.016Z,8.70
2023-03-17T02:27:18.682Z,8.60
2023-03-17T02:29:47.489Z,8.60
2023-03-17T02:32:18.337Z,8.50
2023-03-17T02:34:47.085Z,8.50
2023-03-17T02:37:18.052Z,8.50
2023-03-17T02:39:46.747Z,8.40
2023-03-17T02:42:15.512Z,8.40
2023-03-17T02:44:43.841Z,8.40
2023-03-17T02:47:12.267Z,8.40
2023-03-17T02:49:41.814Z,8.30
2023-03-17T02:52:10.406Z,8.30
2023-03-17T02:54:40.455Z,8.30
2023-03-17T02:57:08.878Z,8.30
2023-03-17T02:59:37.632Z,8.20
2023-03-17T03:02:05.993Z,8.20
2023-03-17T03:04:34.870Z,8.20
2023-03-17T03:07:03.219Z,8.20
2023-03-17T03:09:31.885Z,8.20
2023-03-17T03:12:01.697Z,8.20
2023-03-17T03:14:30.186Z,8.20
2023-03-17T03:16:58.623Z,8.10
2023-03-17T03:19:26.840Z,8.10
2023-03-17T03:21:55.436Z,8.10
2023-03-17T03:24:24.337Z,8.10
2023-03-17T03:26:53.091Z,8.10
2023-03-17T03:29:22.811Z,8.10
2023-03-17T03:31:51.108Z,8.10
2023-03-17T03:34:19.474Z,8.00
2023-03-17T03:36:51.095Z,8.10
2023-03-17T03:39:19.438Z,8.00
2023-03-17T03:41:47.781Z,8.00
2023-03-17T03:44:16.015Z,8.00
2023-03-17T03:46:45.878Z,8.00
2023-03-17T03:49:14.190Z,8.00
2023-03-17T03:51:42.768Z,8.00
2023-03-17T03:54:11.103Z,7.90
2023-03-17T03:56:39.429Z,8.00
2023-03-17T03:59:07.775Z,7.90
2023-03-17T04:01:36.115Z,7.90
2023-03-17T04:04:06.140Z,7.90
2023-03-17T04:06:34.422Z,7.90
2023-03-17T04:09:03.529Z,7.90
2023-03-17T04:11:32.368Z,7.90
2023-03-17T04:14:01.145Z,7.90
2023-03-17T04:16:29.614Z,7.90
2023-03-17T04:18:58.712Z,7.80
2023-03-17T04:21:28.364Z,7.80
2023-03-17T04:23:56.701Z,7.80
2023-03-17T04:26:24.979Z,7.80
2023-03-17T04:28:53.394Z,7.80
2023-03-17T04:31:22.371Z,7.80
2023-03-17T04:33:50.821Z,7.80
2023-03-17T04:36:21.030Z,7.80
2023-03-17T04:38:50.976Z,7.80
2023-03-17T04:41:19.535Z,7.80
2023-03-17T04:43:48.020Z,7.80
2023-03-17T04:46:16.677Z,7.80
2023-03-17T04:48:44.990Z,7.80
2023-03-17T04:51:13.414Z,7.80
2023-03-17T04:53:41.692Z,7.80
2023-03-17T04:56:11.736Z,7.80
2023-03-17T04:58:40.201Z,7.80
2023-03-17T05:01:08.745Z,7.90
2023-03-17T05:03:37.339Z,7.80
2023-03-17T05:06:07.133Z,7.90
2023-03-17T05:08:36.013Z,7.90
2023-03-17T05:11:04.927Z,7.90
2023-03-17T05:13:34.661Z,7.90
2023-03-17T05:16:03.000Z,7.90
2023-03-17T05:18:31.457Z,8.00
2023-03-17T05:20:59.959Z,8.00
2023-03-17T05:23:28.500Z,8.00
2023-03-17T05:25:57.079Z,8.00
2023-03-17T05:28:26.858Z,8.10
2023-03-17T05:30:56.923Z,8.10
2023-03-17T05:33:25.585Z,8.10
2023-03-17T05:35:53.917Z,8.20
2023-03-17T05:38:22.247Z,8.20
2023-03-17T05:40:52.729Z,8.20
2023-03-17T05:43:22.446Z,8.30
2023-03-17T05:45:51.259Z,8.30
2023-03-17T05:48:21.196Z,8.30
2023-03-17T05:50:49.637Z,8.30
2023-03-17T05:53:18.779Z,8.40
2023-03-17T05:55:47.101Z,8.40
2023-03-17T05:58:16.812Z,8.50
2023-03-17T06:00:45.368Z,8.50
2023-03-17T06:03:13.783Z,8.60
2023-03-17T06:05:43.541Z,8.60
2023-03-17T06:08:12.038Z,8.70
2023-03-17T06:10:41.382Z,8.80
2023-03-17T06:13:09.783Z,8.80
2023-03-17T06:15:38.139Z,8.90
2023-03-17T06:18:06.646Z,8.90
2023-03-17T06:20:35.694Z,9.00
2023-03-17T06:23:06.945Z,9.00
2023-03-17T06:25:36.038Z,9.10
2023-03-17T06:28:05.552Z,9.10
2023-03-17T06:30:35.201Z,9.20
2023-03-17T06:33:04.201Z,9.20
2023-03-17T06:35:33.530Z,9.30
2023-03-17T06:38:03.620Z,9.40
2023-03-17T06:40:34.275Z,9.40
2023-03-17T06:43:05.546Z,9.50
2023-03-17T06:45:34.137Z,9.50
2023-03-17T06:48:02.500Z,9.60
2023-03-17T06:50:30.916Z,9.70
2023-03-17T06:52:59.195Z,9.80
2023-03-17T06:55:27.486Z,9.80
2023-03-17T06:57:58.941Z,9.90
2023-03-17T07:00:28.468Z,9.90
2023-03-17T07:02:56.872Z,9.90
2023-03-17T07:05:25.169Z,10.00
2023-03-17T07:07:53.514Z,10.10
2023-03-17T07:10:23.201Z,10.10
2023-03-17T07:12:51.530Z,10.20
2023-03-17T07:15:22.110Z,10.30
2023-03-17T07:17:50.454Z,10.30
2023-03-17T07:20:19.050Z,10.40
2023-03-17T07:22:47.738Z,10.60
2023-03-17T07:25:16.046Z,10.80
2023-03-17T07:27:44.544Z,10.90
2023-03-17T07:30:15.042Z,11.00
2023-03-17T07:32:44.843Z,11.10
2023-03-17T07:35:14.658Z,11.20
2023-03-17T07:37:44.316Z,11.40
2023-03-17T07:40:13.627Z,11.50
2023-03-17T07:42:42.284Z,11.60
2023-03-17T07:45:11.284Z,11.70
2023-03-17T07:47:40.032Z,11.70
2023-03-17T07:50:11.178Z,11.80
2023-03-17T07:52:39.595Z,11.80
2023-03-17T07:55:10.707Z,11.90
2023-03-17T07:57:39.115Z,12.00
2023-03-17T08:00:09.546Z,12.10
2023-03-17T08:02:38.530Z,12.10
2023-03-17T08:05:10.562Z,12.20
2023-03-17T08:07:39.014Z,12.30
2023-03-17T08:10:08.845Z,12.40
2023-03-17T08:12:37.687Z,12.40
2023-03-17T08:15:07.345Z,12.50
2023-03-17T08:17:40.216Z,12.60
2023-03-17T08:20:11.718Z,12.70
2023-03-17T08:22:40.079Z,12.80
2023-03-17T08:25:09.749Z,12.90
2023-03-17T08:27:38.111Z,12.90
2023-03-17T08:30:07.903Z,13.00
2023-03-17T08:32:37.050Z,13.10
2023-03-17T08:35:06.470Z,13.10
2023-03-17T08:37:37.940Z,13.10
2023-03-17T08:40:10.049Z,13.20
2023-03-17T08:42:38.759Z,13.30
2023-03-17T08:45:08.107Z,13.20
2023-03-17T08:47:36.504Z,13.30
2023-03-17T08:50:06.610Z,13.30
2023-03-17T08:52:36.875Z,13.30
2023-03-17T08:55:06.780Z,13.40
2023-03-17T08:57:35.253Z,13.40
2023-03-17T09:00:10.996Z,13.40
2023-03-17T09:02:39.385Z,13.40
2023-03-17T09:05:09.553Z,13.40
2023-03-17T09:07:39.282Z,13.40
2023-03-17T09:10:10.998Z,13.40
2023-03-17T09:12:39.701Z,13.30
2023-03-17T09:15:08.991Z,13.40
2023-03-17T09:17:37.272Z,13.50
2023-03-17T09:20:07.618Z,13.50
2023-03-17T09:22:36.106Z,13.60
2023-03-17T09:25:20.829Z,13.70
2023-03-17T09:27:49.326Z,13.80
2023-03-17T09:30:18.805Z,13.80
2023-03-17T09:32:47.314Z,13.90
2023-03-17T09:35:15.742Z,14.00
2023-03-17T09:37:44.152Z,14.10
2023-03-17T09:40:18.216Z,14.20
2023-03-17T09:43:00.930Z,14.30
2023-03-17T09:45:35.238Z,14.40
2023-03-17T09:48:17.884Z,14.40
2023-03-17T09:50:50.327Z,14.50
2023-03-17T09:53:22.022Z,14.50
2023-03-17T09:55:56.138Z,14.50
2023-03-17T09:58:32.135Z,14.50
2023-03-17T10:01:01.381Z,14.50
2023-03-17T10:03:29.742Z,14.50
2023-03-17T10:06:13.479Z,14.50
2023-03-17T10:08:49.494Z,14.50
2023-03-17T10:11:28.036Z,14.50
2023-03-17T10:14:03.391Z,14.50
2023-03-17T10:16:41.602Z,14.50
2023-03-17T10:19:20.882Z,14.50
2023-03-17T10:21:55.234Z,14.60
2023-03-17T10:24:25.680Z,14.70
2023-03-17T10:26:57.924Z,14.70
2023-03-17T10:29:27.757Z,14.80
2023-03-17T10:31:58.272Z,14.90
2023-03-17T10:34:29.210Z,15.00
2023-03-17T10:37:02.480Z,15.10
2023-03-17T10:39:32.735Z,15.20
2023-03-17T10:42:10.085Z,15.30
2023-03-17T10:44:47.808Z,15.30
2023-03-17T10:47:32.416Z,15.40
2023-03-17T10:50:06.051Z,15.40
2023-03-17T10:52:40.856Z,15.50
2023-03-17T10:55:10.821Z,15.40
2023-03-17T10:58:05.299Z,15.50
2023-03-17T11:00:39.834Z,15.50
2023-03-17T11:03:16.325Z,15.50
2023-03-17T11:05:56.867Z,15.50
2023-03-17T11:08:25.401Z,15.50
2023-03-17T11:10:57.779Z,15.50
2023-03-17T11:13:31.608Z,15.60
2023-03-17T11:16:19.848Z,15.60
2023-03-17T11:18:50.362Z,15.60
2023-03-17T11:21:24.510Z,15.50
2023-03-17T11:23:54.331Z,15.50
2023-03-17T11:26:49.254Z,15.50
2023-03-17T11:29:38.824Z,15.50
2023-03-17T11:32:22.103Z,15.50
2023-03-17T11:35:14.209Z,15.50
2023-03-17T11:38:04.279Z,15.50
2023-03-17T11:40:37.584Z,15.60
2023-03-17T11:43:24.723Z,15.60
2023-03-17T11:45:58.811Z,15.70
2023-03-17T11:48:40.952Z,15.70
2023-03-17T11:51:17.348Z,15.70
2023-03-17T11:54:03.580Z,15.70
2023-03-17T11:56:40.247Z,15.70
2023-03-17T11:59:17.092Z,15.60
2023-03-17T12:01:54.922Z,15.60
2023-03-17T12:04:30.760Z,15.60
2023-03-17T12:07:08.867Z,15.60
2023-03-17T12:09:42.764Z,15.70
2023-03-17T12:12:16.275Z,15.70
2023-03-17T12:14:48.831Z,15.80
2023-03-17T12:17:25.169Z,15.70
2023-03-17T12:20:12.719Z,15.60
2023-03-17T12:22:47.174Z,15.60
2023-03-17T12:25:24.672Z,15.50
2023-03-17T12:28:01.622Z,15.40
2023-03-17T12:30:34.314Z,15.30
2023-03-17T12:33:12.031Z,15.30
2023-03-17T12:35:41.862Z,15.20
2023-03-17T12:38:13.834Z,15.10
2023-03-17T12:41:07.171Z,15.10
2023-03-17T12:43:42.224Z,15.00
2023-03-17T12:46:28.782Z,15.00
2023-03-17T12:49:15.107Z,15.00
2023-03-17T12:52:03.226Z,14.90
2023-03-17T12:54:33.630Z,14.80
2023-03-17T12:57:05.685Z,14.80
2023-03-17T12:59:34.214Z,14.70
2023-03-17T13:02:16.943Z,14.60
2023-03-17T13:04:53.794Z,14.60
2023-03-17T13:11:26.105Z,14.50
2023-03-17T13:11:27.887Z,14.50
2023-03-17T13:14:26.158Z,14.40
2023-03-17T13:17:21.289Z,14.30
2023-03-17T13:23:44.087Z,14.20
2023-03-17T13:26:19.803Z,14.20
2023-03-17T13:28:51.808Z,14.20
2023-03-17T13:31:37.921Z,14.20
2023-03-17T13:34:15.296Z,14.30
2023-03-17T13:37:01.379Z,14.30
2023-03-17T13:40:00.951Z,14.30
2023-03-17T13:42:53.641Z,14.30
2023-03-17T13:45:35.134Z,14.40
2023-03-17T13:48:42.075Z,14.40
2023-03-17T13:51:22.700Z,14.40
2023-03-17T13:53:55.536Z,15.10
2023-03-17T13:56:26.383Z,16.70
2023-03-17T13:59:12.434Z,18.80
2023-03-17T14:01:48.561Z,20.50
2023-03-17T14:04:30.603Z,21.60
2023-03-17T14:07:06.996Z,21.90
2023-03-17T14:09:38.998Z,22.00
2023-03-17T14:12:14.304Z,22.30
2023-03-17T14:14:49.514Z,21.40
2023-03-17T14:17:23.856Z,20.90
2023-03-17T14:20:06.430Z,21.00
2023-03-17T14:22:40.026Z,20.80
2023-03-17T14:25:17.905Z,20.60
2023-03-17T14:27:48.907Z,20.60
2023-03-17T14:30:20.793Z,20.70
2023-03-17T14:33:01.570Z,20.40
2023-03-17T14:35:38.296Z,20.20
2023-03-17T14:38:22.125Z,20.20
2023-03-17T14:40:53.084Z,19.80
2023-03-17T14:43:39.194Z,19.30
2023-03-17T14:46:14.731Z,18.90
2023-03-17T14:48:48.365Z,18.70
2023-03-17T14:51:25.822Z,18.50
2023-03-17T14:53:55.732Z,18.40
2023-03-17T14:56:25.760Z,18.30
2023-03-17T14:58:54.579Z,18.00
2023-03-17T15:01:34.291Z,17.70
2023-03-17T15:04:12.710Z,17.60
2023-03-17T15:06:50.509Z,17.50
2023-03-17T15:09:21.259Z,17.50
2023-03-17T15:11:50.425Z,17.20
2023-03-17T15:14:23.158Z,17.00
2023-03-17T15:16:53.373Z,16.60
2023-03-17T15:19:28.945Z,16.30
2023-03-17T15:22:00.553Z,16.20
2023-03-17T15:24:35.813Z,16.00
2023-03-17T15:27:07.085Z,15.70
2023-03-17T15:29:35.500Z,15.50
2023-03-17T15:32:15.359Z,15.30
2023-03-17T15:34:45.701Z,15.20
2023-03-17T15:37:19.795Z,15.00
2023-03-17T15:39:48.669Z,14.80
2023-03-17T15:42:19.629Z,14.70
2023-03-17T15:44:48.341Z,14.50
2023-03-17T15:47:19.123Z,14.40
2023-03-17T15:49:50.514Z,14.40
2023-03-17T15:52:21.686Z,14.20
2023-03-17T15:54:50.512Z,14.10
2023-03-17T15:57:22.486Z,14.00
2023-03-17T15:59:51.086Z,13.90
2023-03-17T16:02:31.890Z,13.80
2023-03-17T16:05:03.155Z,13.60
2023-03-17T16:07:31.546Z,13.50
2023-03-17T16:09:59.901Z,13.40
2023-03-17T16:12:28.228Z,13.30
2023-03-17T16:14:56.612Z,13.30
2023-03-17T16:17:29.088Z,13.20
2023-03-17T16:19:58.525Z,13.10
2023-03-17T16:22:42.702Z,13.00
2023-03-17T16:25:24.913Z,12.90
2023-03-17T16:27:54.972Z,12.80
2023-03-17T16:30:25.545Z,12.80
2023-03-17T16:32:54.552Z,12.70
2023-03-17T16:35:25.117Z,12.60
2023-03-17T16:37:55.268Z,12.60
2023-03-17T16:40:26.123Z,12.50
2023-03-17T16:42:58.009Z,12.50
2023-03-17T16:45:29.336Z,12.40
2023-03-17T16:47:58.336Z,12.40
2023-03-17T16:50:29.263Z,12.30
2023-03-17T16:52:59.866Z,12.20
2023-03-17T16:55:30.008Z,12.20
2023-03-17T16:58:01.707Z,12.10
2023-03-17T17:00:32.079Z,12.10
2023-03-17T17:03:01.035Z,12.00
2023-03-17T17:05:31.249Z,12.00
2023-03-17T17:08:01.424Z,12.00
2023-03-17T17:10:32.698Z,11.90
2023-03-17T17:13:01.424Z,11.90
2023-03-17T17:15:30.598Z,11.90
2023-03-17T17:18:02.540Z,11.90
2023-03-17T17:20:33.579Z,11.90
2023-03-17T17:23:03.994Z,11.90
2023-03-17T17:25:32.732Z,11.90
2023-03-17T17:28:01.302Z,11.80
2023-03-17T17:30:31.402Z,11.80
2023-03-17T17:33:01.372Z,11.80
2023-03-17T17:35:33.154Z,11.80
2023-03-17T17:38:06.446Z,11.80
2023-03-17T17:40:35.068Z,11.80
2023-03-17T17:43:03.897Z,11.70
2023-03-17T17:45:32.761Z,11.70
2023-03-17T17:48:01.085Z,11.70
2023-03-17T17:50:31.430Z,11.60
2023-03-17T17:53:05.728Z,11.60
2023-03-17T17:55:35.898Z,11.70
2023-03-17T17:58:04.223Z,11.60
2023-03-17T18:00:33.565Z,11.60
2023-03-17T18:03:02.105Z,11.60
2023-03-17T18:05:31.935Z,11.60
2023-03-17T18:08:02.400Z,11.60
2023-03-17T18:10:31.500Z,11.60
2023-03-17T18:13:01.505Z,11.70
2023-03-17T18:15:30.123Z,11.60
2023-03-17T18:17:58.412Z,11.70
2023-03-17T18:20:27.468Z,11.70
2023-03-17T18:22:55.937Z,11.70
2023-03-17T18:25:25.482Z,11.80
2023-03-17T18:27:54.161Z,11.80
2023-03-17T18:30:25.354Z,11.80
2023-03-17T18:32:55.964Z,11.80
2023-03-17T18:35:27.949Z,11.80
2023-03-17T18:37:57.722Z,11.80
2023-03-17T18:40:26.911Z,11.80
2023-03-17T18:42:55.458Z,11.80
2023-03-17T18:45:25.202Z,11.80
2023-03-17T18:47:53.836Z,11.80
2023-03-17T18:50:22.818Z,11.80
2023-03-17T18:52:51.613Z,11.70
2023-03-17T18:55:20.089Z,11.70
2023-03-17T18:57:48.717Z,11.70
2023-03-17T19:00:18.949Z,11.70
2023-03-17T19:02:48.818Z,11.70
2023-03-17T19:05:17.138Z,11.70
2023-03-17T19:07:45.375Z,11.70
2023-03-17T19:10:17.008Z,11.70
2023-03-17T19:12:47.278Z,11.80
2023-03-17T19:15:17.277Z,11.80
2023-03-17T19:17:45.598Z,11.80
2023-03-17T19:20:16.062Z,11.80
2023-03-17T19:22:44.430Z,11.80
2023-03-17T19:25:13.165Z,11.90
2023-03-17T19:27:41.427Z,11.90
2023-03-17T19:30:10.941Z,11.90
2023-03-17T19:32:39.356Z,12.00
2023-03-17T19:35:08.704Z,12.00
2023-03-17T19:37:38.517Z,12.00
2023-03-17T19:40:08.586Z,12.00
2023-03-17T19:42:37.034Z,12.00
2023-03-17T19:45:06.390Z,12.00
2023-03-17T19:47:34.705Z,12.00
2023-03-17T19:50:03.001Z,12.00
2023-03-17T19:52:31.417Z,12.00
2023-03-17T19:55:01.313Z,12.00
2023-03-17T19:57:29.730Z,12.00
2023-03-17T19:59:58.018Z,12.00
2023-03-17T20:02:26.307Z,12.00
2023-03-17T20:04:54.795Z,12.10
2023-03-17T20:07:23.095Z,12.00
2023-03-17T20:09:52.704Z,12.00
2023-03-17T20:12:22.492Z,12.00
2023-03-17T20:14:51.076Z,12.00
2023-03-17T20:17:20.120Z,12.00
2023-03-17T20:19:48.873Z,11.90
2023-03-17T20:22:17.223Z,11.90
2023-03-17T20:24:45.793Z,11.90
2023-03-17T20:27:15.446Z,11.90
2023-03-17T20:29:46.522Z,11.80
2023-03-17T20:32:17.304Z,11.80
2023-03-17T20:34:46.758Z,11.80
2023-03-17T20:37:15.280Z,11.80
2023-03-17T20:39:44.083Z,11.80
2023-03-17T20:42:14.799Z,11.80
2023-03-17T20:44:44.715Z,11.90
2023-03-17T20:47:14.144Z,11.80
2023-03-17T20:49:42.711Z,11.80
2023-03-17T20:52:14.326Z,11.80
2023-03-17T20:54:43.076Z,11.80
2023-03-17T20:57:14.058Z,11.80
2023-03-17T20:59:43.888Z,11.80
2023-03-17T21:02:17.446Z,11.80
2023-03-17T21:04:48.940Z,11.80
2023-03-17T21:07:19.340Z,11.80
2023-03-17T21:09:47.884Z,11.80
2023-03-17T21:12:18.233Z,11.70
2023-03-17T21:14:48.192Z,11.70
2023-03-17T21:17:18.457Z,11.70
2023-03-17T21:19:47.555Z,11.70
2023-03-17T21:22:16.124Z,11.70
2023-03-17T21:24:44.513Z,11.80
2023-03-17T21:27:12.944Z,11.70
2023-03-17T21:29:41.578Z,11.70
2023-03-17T21:32:10.016Z,11.70
2023-03-17T21:34:39.788Z,11.60
2023-03-17T21:37:08.173Z,11.60
2023-03-17T21:39:36.817Z,11.60
2023-03-17T21:42:05.589Z,11.60
2023-03-17T21:44:33.895Z,11.60
2023-03-17T21:47:07.776Z,11.60
2023-03-17T21:49:36.161Z,11.60
2023-03-17T21:52:06.010Z,11.60
2023-03-17T21:54:35.121Z,11.60
2023-03-17T21:57:03.416Z,11.60
2023-03-17T21:59:34.379Z,11.60
2023-03-17T22:02:03.029Z,11.60
2023-03-17T22:04:31.385Z,11.50
2023-03-17T22:07:00.012Z,11.50
2023-03-17T22:09:29.682Z,11.50
2023-03-17T22:11:58.156Z,11.50
2023-03-17T22:14:27.043Z,11.40
2023-03-17T22:16:55.512Z,11.40
2023-03-17T22:19:23.963Z,11.40
2023-03-17T22:21:52.314Z,11.40
2023-03-17T22:24:20.663Z,11.40
2023-03-17T22:26:50.411Z,11.30
2023-03-17T22:29:18.732Z,11.30
2023-03-17T22:31:47.239Z,11.30
2023-03-17T22:34:15.600Z,11.30
2023-03-17T22:36:43.943Z,11.30
2023-03-17T22:39:12.422Z,11.30
2023-03-17T22:41:41.059Z,11.30
2023-03-17T22:44:12.072Z,11.20
2023-03-17T22:46:41.627Z,11.20
2023-03-17T22:49:10.536Z,11.20
2023-03-17T22:51:40.947Z,11.20
2023-03-17T22:54:11.404Z,11.20
2023-03-17T22:56:40.221Z,11.20
2023-03-17T22:59:08.612Z,11.20
2023-03-17T23:01:38.418Z,11.20
2023-03-17T23:04:07.838Z,11.20
2023-03-17T23:06:38.117Z,11.20
2023-03-17T23:09:06.857Z,11.20
2023-03-17T23:11:35.233Z,11.20
2023-03-17T23:14:04.446Z,11.20
2023-03-17T23:16:32.995Z,11.20
2023-03-17T23:19:02.804Z,11.20
2023-03-17T23:21:33.791Z,11.10
2023-03-17T23:24:03.866Z,11.10
2023-03-17T23:26:32.807Z,11.10
2023-03-17T23:29:01.119Z,11.10
2023-03-17T23:31:29.414Z,11.10
2023-03-17T23:33:58.245Z,11.10
2023-03-17T23:36:28.380Z,11.10
2023-03-17T23:38:57.075Z,11.10
2023-03-17T23:41:25.403Z,11.10
2023-03-17T23:43:53.709Z,11.10
2023-03-17T23:46:22.086Z,11.10
2023-03-17T23:48:50.928Z,11.10
2023-03-17T23:51:19.319Z,11.10
2023-03-17T23:53:50.643Z,11.10
2023-03-17T23:56:20.126Z,11.10
2023-03-17T23:58:49.112Z,11.10
